Time;durP1;ratioP1;P1;durP2;ratioP2;P2;SDS_P1;SDS_P2;PMS_P1;PMS_P2;Temp;Humidity;BMP_temperature;BMP_pressure;BME280_temperature;BME280_humidity;BME280_pressure;Samples;Min_cycle;Max_cycle;Signal;HPM_P1;HPM_P2
2023/09/01 00:01:25;;;;;;;0.10;0.10;;;;;;;;;;6197628;28;20022;-89
2023/09/01 00:04:26;;;;;;;0.10;0.10;;;;;;;;;;6201549;28;20461;-88
2023/09/01 00:07:26;;;;;;;0.10;0.10;;;;;;;;;;6197148;28;20021;-89
2023/09/01 00:10:26;;;;;;;0.20;0.20;;;;;;;;;;6199557;28;20026;-89
2023/09/01 00:13:26;;;;;;;0.10;0.10;;;;;;;;;;6198881;28;20056;-89
2023/09/01 00:16:26;;;;;;;0.20;0.20;;;;;;;;;;6200216;28;20547;-89
2023/09/01 00:19:26;;;;;;;0.20;0.20;;;;;;;;;;6199627;28;20018;-89
2023/09/01 00:22:27;;;;;;;0.20;0.20;;;;;;;;;;6199904;28;20015;-89
2023/09/01 00:25:27;;;;;;;0.10;0.10;;;;;;;;;;6200768;28;20093;-90
2023/09/01 00:28:27;;;;;;;0.10;0.10;;;;;;;;;;6198972;28;20514;-89
2023/09/01 00:31:27;;;;;;;0.10;0.10;;;;;;;;;;6187193;28;20105;-89
2023/09/01 00:34:30;;;;;;;0.10;0.10;;;;;;;;;;6203049;28;20022;-89
2023/09/01 00:37:30;;;;;;;0.10;0.10;;;;;;;;;;6202828;28;20018;-89
2023/09/01 00:40:30;;;;;;;0.10;0.10;;;;;;;;;;6186501;28;20049;-89
2023/09/01 00:43:30;;;;;;;0.10;0.10;;;;;;;;;;6200454;28;20462;-89
2023/09/01 00:46:31;;;;;;;0.10;0.10;;;;;;;;;;6198375;28;20136;-89
2023/09/01 00:49:32;;;;;;;0.20;0.20;;;;;;;;;;6197482;28;20045;-79
2023/09/01 00:52:32;;;;;;;0.10;0.10;;;;;;;;;;6195451;28;20373;-79
2023/09/01 00:55:33;;;;;;;0.10;0.10;;;;;;;;;;6195411;28;20030;-79
2023/09/01 00:58:33;;;;;;;0.10;0.10;;;;;;;;;;6196098;28;20022;-79
2023/09/01 01:01:34;;;;;;;0.10;0.10;;;;;;;;;;6195598;28;20022;-79
2023/09/01 01:04:34;;;;;;;0.10;0.10;;;;;;;;;;6195730;28;20022;-79
2023/09/01 01:07:41;;;;;;;0.10;0.10;;;;;;;;;;6195211;28;20878;-79
2023/09/01 01:11:02;;;;;;;0.20;0.20;;;;;;;;;;6194482;28;20046;-79
2023/09/01 01:14:11;;;;;;;0.10;0.10;;;;;;;;;;6197555;28;20029;-78
2023/09/01 01:17:12;;;;;;;0.10;0.10;;;;;;;;;;6195491;28;20034;-78
2023/09/01 01:20:18;;;;;;;0.17;0.17;;;;;;;;;;6189822;28;20362;-78
2023/09/01 01:23:20;;;;;;;0.10;0.10;;;;;;;;;;6169853;28;20272;-78
2023/09/01 01:26:21;;;;;;;0.10;0.10;;;;;;;;;;6177587;28;20100;-78
2023/09/01 01:29:21;;;;;;;0.20;0.20;;;;;;;;;;6195213;28;20011;-78
2023/09/01 01:32:22;;;;;;;0.20;0.20;;;;;;;;;;6179575;28;20026;-78
2023/09/01 01:35:31;;;;;;;0.10;0.10;;;;;;;;;;6177660;28;20026;-78
2023/09/01 01:38:34;;;;;;;0.10;0.10;;;;;;;;;;6175912;28;20030;-78
2023/09/01 01:41:55;;;;;;;0.20;0.20;;;;;;;;;;6191405;28;20106;-78
2023/09/01 01:44:56;;;;;;;0.20;0.20;;;;;;;;;;6192164;28;20074;-78
2023/09/01 01:47:57;;;;;;;;;;;;;;;;;;6186755;28;20505;-78
2023/09/01 01:50:57;;;;;;;0.20;0.20;;;;;;;;;;6192734;28;19905;-78
2023/09/01 01:53:57;;;;;;;0.20;0.20;;;;;;;;;;6188271;28;20015;-78
2023/09/01 01:56:57;;;;;;;0.20;0.20;;;;;;;;;;6194409;28;20534;-82
2023/09/01 01:59:58;;;;;;;0.20;0.20;;;;;;;;;;6185537;28;20019;-79
2023/09/01 02:02:58;;;;;;;0.20;0.20;;;;;;;;;;6175639;28;20045;-79
2023/09/01 02:05:58;;;;;;;0.13;0.13;;;;;;;;;;6197341;28;20084;-79
2023/09/01 02:08:58;;;;;;;0.10;0.10;;;;;;;;;;6192603;28;20022;-79
2023/09/01 02:11:58;;;;;;;0.20;0.20;;;;;;;;;;6194871;28;20053;-79
2023/09/01 02:14:59;;;;;;;0.20;0.20;;;;;;;;;;6194742;28;20018;-79
2023/09/01 02:17:59;;;;;;;0.10;0.10;;;;;;;;;;6192691;28;20018;-79
2023/09/01 02:21:00;;;;;;;0.10;0.10;;;;;;;;;;6195020;28;20019;-79
2023/09/01 02:24:00;;;;;;;0.10;0.10;;;;;;;;;;6194094;28;20017;-79
2023/09/01 02:27:00;;;;;;;0.20;0.20;;;;;;;;;;6193134;28;20018;-79
2023/09/01 02:30:01;;;;;;;0.13;0.13;;;;;;;;;;6177001;28;20022;-78
2023/09/01 02:33:01;;;;;;;0.10;0.10;;;;;;;;;;6189079;28;20417;-79
2023/09/01 02:36:20;;;;;;;0.10;0.10;;;;;;;;;;6193255;28;20026;-78
2023/09/01 02:39:20;;;;;;;0.20;0.20;;;;;;;;;;6186906;28;20851;-79
2023/09/01 02:42:22;;;;;;;0.10;0.10;;;;;;;;;;6189314;28;20019;-79
2023/09/01 02:45:22;;;;;;;0.20;0.20;;;;;;;;;;6193415;28;20501;-79
2023/09/01 02:48:22;;;;;;;0.20;0.20;;;;;;;;;;6176381;28;20021;-79
2023/09/01 02:51:22;;;;;;;0.10;0.10;;;;;;;;;;6189126;28;20401;-79
2023/09/01 02:54:23;;;;;;;0.20;0.20;;;;;;;;;;6194430;28;20022;-79
2023/09/01 02:57:23;;;;;;;0.10;0.10;;;;;;;;;;6193516;28;20381;-79
2023/09/01 03:00:23;;;;;;;0.20;0.20;;;;;;;;;;6192776;28;20015;-79
2023/09/01 03:03:24;;;;;;;0.20;0.20;;;;;;;;;;6192391;28;20046;-79
2023/09/01 03:06:24;;;;;;;0.17;0.17;;;;;;;;;;6194231;28;20034;-79
2023/09/01 03:09:25;;;;;;;0.20;0.20;;;;;;;;;;6166609;28;20064;-87
2023/09/01 03:12:25;;;;;;;0.20;0.20;;;;;;;;;;6198363;28;20356;-87
2023/09/01 03:15:26;;;;;;;0.20;0.20;;;;;;;;;;6184018;28;20021;-88
2023/09/01 03:18:26;;;;;;;0.20;0.20;;;;;;;;;;6188521;28;20033;-86
2023/09/01 03:21:30;;;;;;;0.20;0.20;;;;;;;;;;6202565;28;20105;-87
2023/09/01 03:24:30;;;;;;;0.20;0.20;;;;;;;;;;6199063;28;20018;-87
2023/09/01 03:27:31;;;;;;;0.20;0.20;;;;;;;;;;6194393;28;20011;-87
2023/09/01 03:30:31;;;;;;;0.20;0.20;;;;;;;;;;6197256;28;20436;-87
2023/09/01 03:33:32;;;;;;;0.20;0.20;;;;;;;;;;6193931;28;20045;-87
2023/09/01 03:36:32;;;;;;;0.10;0.10;;;;;;;;;;6203959;28;20041;-88
2023/09/01 03:39:32;;;;;;;0.20;0.20;;;;;;;;;;6204045;28;20026;-88
2023/09/01 03:42:32;;;;;;;0.20;0.20;;;;;;;;;;6183863;28;20042;-87
2023/09/01 03:45:32;;;;;;;0.20;0.20;;;;;;;;;;6199828;28;20035;-88
2023/09/01 03:48:35;;;;;;;0.20;0.20;;;;;;;;;;6183504;28;20019;-87
2023/09/01 03:51:35;;;;;;;0.20;0.20;;;;;;;;;;6199996;28;20019;-87
2023/09/01 03:54:35;;;;;;;0.20;0.20;;;;;;;;;;6194776;28;20492;-87
2023/09/01 03:57:35;;;;;;;0.20;0.20;;;;;;;;;;6198200;28;20038;-87
2023/09/01 04:00:35;;;;;;;0.20;0.20;;;;;;;;;;6203924;28;20010;-87
2023/09/01 04:03:36;;;;;;;0.20;0.20;;;;;;;;;;6190460;28;20018;-88
2023/09/01 04:06:36;;;;;;;0.20;0.20;;;;;;;;;;6199566;28;20014;-87
2023/09/01 04:09:37;;;;;;;0.20;0.20;;;;;;;;;;6195403;28;20504;-87
2023/09/01 04:12:37;;;;;;;0.20;0.20;;;;;;;;;;6196746;28;20022;-88
2023/09/01 04:15:37;;;;;;;0.10;0.10;;;;;;;;;;6203244;28;20023;-87
2023/09/01 04:18:37;;;;;;;0.20;0.20;;;;;;;;;;6197176;28;20022;-88
2023/09/01 04:21:38;;;;;;;0.20;0.20;;;;;;;;;;6179464;28;20128;-87
2023/09/01 04:24:38;;;;;;;0.10;0.10;;;;;;;;;;6197562;28;20033;-87
2023/09/01 04:27:38;;;;;;;0.17;0.17;;;;;;;;;;6191754;28;20037;-81
2023/09/01 04:30:39;;;;;;;0.20;0.20;;;;;;;;;;6184137;28;20103;-81
2023/09/01 04:33:39;;;;;;;0.20;0.20;;;;;;;;;;6193554;28;20050;-81
2023/09/01 04:36:39;;;;;;;0.13;0.13;;;;;;;;;;6175964;28;20093;-81
2023/09/01 04:39:39;;;;;;;0.20;0.20;;;;;;;;;;6177330;28;20033;-81
2023/09/01 04:42:40;;;;;;;0.20;0.20;;;;;;;;;;6194363;28;20064;-81
2023/09/01 04:45:40;;;;;;;0.10;0.10;;;;;;;;;;6196293;28;20050;-81
2023/09/01 04:48:40;;;;;;;0.20;0.20;;;;;;;;;;6195932;28;20117;-81
2023/09/01 04:51:40;;;;;;;0.20;0.20;;;;;;;;;;6195608;28;20021;-81
2023/09/01 04:54:40;;;;;;;0.10;0.10;;;;;;;;;;6196197;28;20184;-81
2023/09/01 04:57:41;;;;;;;0.20;0.20;;;;;;;;;;6177907;28;20064;-81
2023/09/01 05:00:41;;;;;;;0.20;0.20;;;;;;;;;;6195776;28;20018;-81
2023/09/01 05:03:41;;;;;;;0.20;0.20;;;;;;;;;;6195811;28;20541;-81
2023/09/01 05:06:41;;;;;;;0.17;0.17;;;;;;;;;;6196055;28;20076;-81
2023/09/01 05:09:42;;;;;;;0.10;0.10;;;;;;;;;;6194743;28;20053;-81
2023/09/01 05:12:42;;;;;;;0.10;0.10;;;;;;;;;;6195238;28;20033;-81
2023/09/01 05:15:42;;;;;;;0.10;0.10;;;;;;;;;;6196023;28;20026;-81
2023/09/01 05:18:42;;;;;;;0.10;0.10;;;;;;;;;;6194986;28;20024;-80
2023/09/01 05:21:42;;;;;;;0.10;0.10;;;;;;;;;;6194985;28;20017;-81
2023/09/01 05:24:43;;;;;;;0.10;0.10;;;;;;;;;;6195036;28;20010;-81
2023/09/01 05:27:43;;;;;;;0.10;0.10;;;;;;;;;;6195152;28;20010;-88
2023/09/01 05:30:43;;;;;;;0.10;0.10;;;;;;;;;;6195008;28;20440;-88
2023/09/01 05:33:44;;;;;;;0.10;0.10;;;;;;;;;;6194435;28;20019;-87
2023/09/01 05:36:44;;;;;;;0.10;0.10;;;;;;;;;;6194584;28;20097;-87
2023/09/01 05:39:44;;;;;;;0.10;0.10;;;;;;;;;;6157001;28;20492;-88
2023/09/01 05:42:45;;;;;;;0.10;0.10;;;;;;;;;;6194879;28;20018;-87
2023/09/01 05:45:45;;;;;;;0.10;0.10;;;;;;;;;;6194936;28;20081;-85
2023/09/01 05:48:45;;;;;;;0.10;0.10;;;;;;;;;;6194507;28;20205;-85
2023/09/01 05:51:46;;;;;;;0.10;0.10;;;;;;;;;;6194137;28;20101;-85
2023/09/01 05:54:46;;;;;;;0.00;0.00;;;;;;;;;;6190346;28;20026;-85
2023/09/01 05:57:46;;;;;;;0.00;0.00;;;;;;;;;;6193633;28;20030;-85
2023/09/01 06:00:46;;;;;;;0.10;0.10;;;;;;;;;;6194689;28;20022;-84
2023/09/01 06:03:47;;;;;;;0.00;0.00;;;;;;;;;;6194051;28;20029;-84
2023/09/01 06:06:47;;;;;;;0.00;0.00;;;;;;;;;;6194343;28;20015;-84
2023/09/01 06:09:48;;;;;;;0.00;0.00;;;;;;;;;;6194049;28;20026;-84
2023/09/01 06:12:48;;;;;;;0.00;0.00;;;;;;;;;;6175874;28;20076;-84
2023/09/01 06:15:48;;;;;;;0.00;0.00;;;;;;;;;;6195543;28;20022;-84
2023/09/01 06:18:48;;;;;;;0.00;0.00;;;;;;;;;;6192574;28;20037;-84
2023/09/01 06:21:49;;;;;;;0.00;0.00;;;;;;;;;;6176167;28;20555;-84
2023/09/01 06:24:49;;;;;;;0.00;0.00;;;;;;;;;;6190828;28;20489;-84
2023/09/01 06:27:49;;;;;;;0.00;0.00;;;;;;;;;;6189529;28;20018;-85
2023/09/01 06:30:50;;;;;;;0.00;0.00;;;;;;;;;;6193799;28;20053;-86
2023/09/01 06:33:50;;;;;;;0.00;0.00;;;;;;;;;;6193756;28;20574;-85
2023/09/01 06:36:50;;;;;;;0.00;0.00;;;;;;;;;;6193831;28;20050;-85
2023/09/01 06:39:50;;;;;;;0.00;0.00;;;;;;;;;;6193831;28;20061;-85
2023/09/01 06:42:51;;;;;;;0.00;0.00;;;;;;;;;;6193722;28;20133;-85
2023/09/01 06:45:53;;;;;;;0.00;0.00;;;;;;;;;;6194095;28;20030;-85
2023/09/01 06:48:53;;;;;;;0.00;0.00;;;;;;;;;;6192869;28;20014;-86
2023/09/01 06:51:53;;;;;;;0.10;0.10;;;;;;;;;;6192355;28;20109;-87
2023/09/01 06:54:53;;;;;;;0.00;0.00;;;;;;;;;;6193574;28;20050;-87
2023/09/01 06:57:54;;;;;;;0.00;0.00;;;;;;;;;;6192951;28;20030;-79
2023/09/01 07:00:54;;;;;;;0.00;0.00;;;;;;;;;;6192915;28;20007;-79
2023/09/01 07:03:55;;;;;;;0.00;0.00;;;;;;;;;;6188036;28;20041;-79
2023/09/01 07:06:55;;;;;;;0.10;0.10;;;;;;;;;;6193738;28;20029;-79
2023/09/01 07:09:55;;;;;;;0.00;0.00;;;;;;;;;;6195667;28;20488;-87
2023/09/01 07:12:57;;;;;;;0.00;0.00;;;;;;;;;;6181096;28;20038;-87
2023/09/01 07:15:57;;;;;;;0.00;0.00;;;;;;;;;;6200637;28;20029;-87
2023/09/01 07:18:57;;;;;;;0.00;0.00;;;;;;;;;;6193072;28;20791;-87
2023/09/01 07:21:57;;;;;;;0.00;0.00;;;;;;;;;;6195047;28;20802;-89
2023/09/01 07:24:58;;;;;;;0.00;0.00;;;;;;;;;;6191749;28;20027;-88
2023/09/01 07:27:58;;;;;;;0.00;0.00;;;;;;;;;;6192281;28;20448;-87
2023/09/01 07:30:58;;;;;;;0.00;0.00;;;;;;;;;;6197425;28;20030;-87
2023/09/01 07:33:59;;;;;;;0.00;0.00;;;;;;;;;;6179507;28;20306;-88
2023/09/01 07:37:00;;;;;;;0.00;0.00;;;;;;;;;;6197233;28;20494;-86
2023/09/01 07:40:00;;;;;;;0.00;0.00;;;;;;;;;;6196242;28;20037;-86
2023/09/01 07:43:00;;;;;;;0.00;0.00;;;;;;;;;;6197221;28;20425;-86
2023/09/01 07:46:01;;;;;;;0.10;0.10;;;;;;;;;;6178657;28;20069;-85
2023/09/01 07:49:02;;;;;;;0.00;0.00;;;;;;;;;;6179971;28;20503;-85
2023/09/01 07:52:02;;;;;;;0.00;0.00;;;;;;;;;;6195008;28;20045;-85
2023/09/01 07:55:05;;;;;;;0.00;0.00;;;;;;;;;;6198028;28;20461;-84
2023/09/01 07:58:05;;;;;;;0.10;0.10;;;;;;;;;;6196709;28;20113;-86
2023/09/01 08:01:05;;;;;;;0.00;0.00;;;;;;;;;;6196715;28;20496;-85
2023/09/01 08:04:05;;;;;;;0.00;0.00;;;;;;;;;;6196903;28;20019;-87
2023/09/01 08:07:06;;;;;;;0.00;0.00;;;;;;;;;;6178669;28;20489;-86
2023/09/01 08:10:09;;;;;;;0.00;0.00;;;;;;;;;;6194696;28;20022;-86
2023/09/01 08:13:09;;;;;;;0.00;0.00;;;;;;;;;;6197340;28;20022;-86
2023/09/01 08:16:09;;;;;;;0.00;0.00;;;;;;;;;;6179938;28;20129;-85
2023/09/01 08:19:10;;;;;;;0.00;0.00;;;;;;;;;;6194220;28;20034;-79
2023/09/01 08:22:10;;;;;;;0.00;0.00;;;;;;;;;;6195795;28;20026;-79
2023/09/01 08:25:10;;;;;;;0.00;0.00;;;;;;;;;;6196190;28;20742;-78
2023/09/01 08:28:10;;;;;;;0.00;0.00;;;;;;;;;;6178869;28;20031;-78
2023/09/01 08:31:10;;;;;;;0.00;0.00;;;;;;;;;;6176845;28;20066;-78
2023/09/01 08:34:12;;;;;;;0.07;0.07;;;;;;;;;;6193793;28;20405;-78
2023/09/01 08:37:15;;;;;;;0.00;0.00;;;;;;;;;;6196061;28;20018;-78
2023/09/01 08:40:16;;;;;;;0.00;0.00;;;;;;;;;;6195757;28;20023;-78
2023/09/01 08:43:17;;;;;;;0.00;0.00;;;;;;;;;;6195729;28;20088;-78
2023/09/01 08:46:20;;;;;;;0.00;0.00;;;;;;;;;;6189268;28;20050;-78
2023/09/01 08:49:22;;;;;;;0.00;0.00;;;;;;;;;;6195811;28;20019;-77
2023/09/01 08:52:23;;;;;;;0.00;0.00;;;;;;;;;;6184317;28;20030;-78
2023/09/01 08:55:23;;;;;;;0.10;0.10;;;;;;;;;;6194978;28;20031;-78
2023/09/01 08:58:24;;;;;;;0.00;0.00;;;;;;;;;;6192316;28;20061;-78
2023/09/01 09:01:24;;;;;;;0.00;0.00;;;;;;;;;;6191726;28;20062;-78
2023/09/01 09:04:24;;;;;;;0.00;0.00;;;;;;;;;;6174706;28;20026;-78
2023/09/01 09:07:24;;;;;;;0.00;0.00;;;;;;;;;;6194061;28;20389;-78
2023/09/01 09:10:34;;;;;;;0.00;0.00;;;;;;;;;;6186311;28;20027;-78
2023/09/01 09:13:34;;;;;;;0.00;0.00;;;;;;;;;;6198826;28;20060;-77
2023/09/01 09:16:49;;;;;;;0.00;0.00;;;;;;;;;;6194377;28;20088;-78
2023/09/01 09:19:59;;;;;;;0.00;0.00;;;;;;;;;;6194226;28;20525;-78
2023/09/01 09:23:00;;;;;;;0.00;0.00;;;;;;;;;;6193055;28;20030;-78
2023/09/01 09:26:01;;;;;;;0.00;0.00;;;;;;;;;;6176582;28;20033;-78
2023/09/01 09:29:11;;;;;;;0.00;0.00;;;;;;;;;;6176600;28;20081;-78
2023/09/01 09:32:21;;;;;;;0.10;0.10;;;;;;;;;;6189726;28;20042;-77
2023/09/01 09:35:24;;;;;;;0.00;0.00;;;;;;;;;;6190236;28;20038;-78
2023/09/01 09:38:38;;;;;;;0.10;0.10;;;;;;;;;;6175669;28;20069;-78
2023/09/01 09:41:47;;;;;;;0.00;0.00;;;;;;;;;;6194821;28;20110;-77
2023/09/01 09:44:49;;;;;;;0.00;0.00;;;;;;;;;;6188682;28;20045;-78
2023/09/01 09:47:51;;;;;;;0.00;0.00;;;;;;;;;;6194211;28;20041;-78
2023/09/01 09:50:51;;;;;;;;;;;;;;;;;;6189739;28;20033;-78
2023/09/01 09:53:58;;;;;;;0.00;0.00;;;;;;;;;;6344753;27;20367;-78
2023/09/01 09:57:00;;;;;;;0.00;0.00;;;;;;;;;;6327661;28;20066;-78
2023/09/01 10:00:10;;;;;;;0.00;0.00;;;;;;;;;;6340411;28;20363;-78
2023/09/01 10:03:11;;;;;;;0.00;0.00;;;;;;;;;;6336946;28;20023;-79
2023/09/01 10:06:11;;;;;;;0.00;0.00;;;;;;;;;;6338929;28;20121;-78
2023/09/01 10:09:13;;;;;;;0.00;0.00;;;;;;;;;;6332591;28;20024;-79
2023/09/01 10:12:13;;;;;;;0.00;0.00;;;;;;;;;;6336078;28;20051;-78
2023/09/01 10:15:15;;;;;;;0.00;0.00;;;;;;;;;;6342836;28;20022;-78
2023/09/01 10:18:16;;;;;;;0.10;0.10;;;;;;;;;;6336872;28;20434;-78
2023/09/01 10:21:16;;;;;;;0.00;0.00;;;;;;;;;;6331834;28;20031;-78
2023/09/01 10:24:17;;;;;;;0.00;0.00;;;;;;;;;;6350335;28;20019;-78
2023/09/01 10:27:19;;;;;;;0.00;0.00;;;;;;;;;;6322332;28;20019;-78
2023/09/01 10:30:30;;;;;;;0.00;0.00;;;;;;;;;;6337521;28;20016;-78
2023/09/01 10:33:31;;;;;;;0.00;0.00;;;;;;;;;;6337202;28;20430;-77
2023/09/01 10:36:31;;;;;;;0.00;0.00;;;;;;;;;;6341522;28;20016;-78
2023/09/01 10:39:31;;;;;;;0.00;0.00;;;;;;;;;;6342361;28;20023;-78
2023/09/01 10:42:38;;;;;;;0.00;0.00;;;;;;;;;;6328314;28;20498;-78
2023/09/01 10:45:39;;;;;;;0.08;0.08;;;;;;;;;;6338920;28;20102;-78
2023/09/01 10:48:49;;;;;;;0.00;0.00;;;;;;;;;;6335390;28;20073;-78
2023/09/01 10:52:10;;;;;;;0.00;0.00;;;;;;;;;;6331210;28;20048;-78
2023/09/01 10:55:10;;;;;;;0.00;0.00;;;;;;;;;;6334067;28;20020;-78
2023/09/01 10:58:10;;;;;;;0.00;0.00;;;;;;;;;;6334093;28;20025;-77
2023/09/01 11:01:30;;;;;;;0.00;0.00;;;;;;;;;;6326994;28;20023;-78
2023/09/01 11:04:31;;;;;;;0.00;0.00;;;;;;;;;;6316795;28;20106;-78
2023/09/01 11:07:51;;;;;;;0.00;0.00;;;;;;;;;;6312108;28;20020;-78
2023/09/01 11:10:55;;;;;;;0.00;0.00;;;;;;;;;;6318425;28;20024;-78
2023/09/01 11:14:00;;;;;;;0.00;0.00;;;;;;;;;;6318904;28;20038;-78
2023/09/01 11:17:01;;;;;;;0.00;0.00;;;;;;;;;;6324228;28;20023;-78
2023/09/01 11:20:03;;;;;;;;;;;;;;;;;;6318961;28;20085;-78
2023/09/01 11:23:03;;;;;;;0.00;0.00;;;;;;;;;;6316618;28;20419;-78
2023/09/01 11:26:04;;;;;;;0.00;0.00;;;;;;;;;;6320445;28;20020;-78
2023/09/01 11:29:08;;;;;;;0.00;0.00;;;;;;;;;;6316342;28;20016;-78
2023/09/01 11:32:09;;;;;;;0.00;0.00;;;;;;;;;;6327591;28;20456;-78
2023/09/01 11:35:20;;;;;;;0.00;0.00;;;;;;;;;;6335612;28;20016;-78
2023/09/01 11:38:20;;;;;;;0.00;0.00;;;;;;;;;;6328617;28;20479;-78
2023/09/01 11:41:21;;;;;;;0.00;0.00;;;;;;;;;;6328381;28;20020;-78
2023/09/01 11:44:22;;;;;;;0.00;0.00;;;;;;;;;;6322852;28;20094;-77
2023/09/01 11:47:25;;;;;;;0.00;0.00;;;;;;;;;;6320616;28;20485;-78
2023/09/01 11:50:25;;;;;;;0.00;0.00;;;;;;;;;;6322711;28;20020;-78
2023/09/01 11:53:29;;;;;;;0.00;0.00;;;;;;;;;;6317008;28;20052;-78
2023/09/01 11:56:30;;;;;;;0.00;0.00;;;;;;;;;;6319381;28;20470;-78
2023/09/01 11:59:30;;;;;;;0.10;0.10;;;;;;;;;;6316644;28;20023;-77
2023/09/01 12:02:30;;;;;;;0.00;0.00;;;;;;;;;;6322920;28;20445;-77
2023/09/01 12:05:35;;;;;;;0.00;0.00;;;;;;;;;;6319795;28;20027;-78
2023/09/01 12:08:37;;;;;;;0.00;0.00;;;;;;;;;;6316802;28;20024;-78
2023/09/01 12:12:02;;;;;;;0.00;0.00;;;;;;;;;;6309249;28;20019;-78
2023/09/01 12:15:03;;;;;;;0.00;0.00;;;;;;;;;;6328174;28;20030;-77
2023/09/01 12:18:22;;;;;;;0.00;0.00;;;;;;;;;;6311679;28;20017;-77
2023/09/01 12:21:24;;;;;;;0.10;0.10;;;;;;;;;;6317023;28;20081;-77
2023/09/01 12:24:24;;;;;;;0.00;0.00;;;;;;;;;;6308311;28;20023;-76
2023/09/01 12:27:25;;;;;;;0.00;0.00;;;;;;;;;;6320866;28;20231;-76
2023/09/01 12:30:25;;;;;;;0.00;0.00;;;;;;;;;;6315224;28;20093;-76
2023/09/01 12:33:25;;;;;;;0.00;0.00;;;;;;;;;;6310812;28;20427;-76
2023/09/01 12:36:25;;;;;;;0.00;0.00;;;;;;;;;;6310837;28;20123;-76
2023/09/01 12:39:26;;;;;;;0.00;0.00;;;;;;;;;;6317803;28;20087;-76
2023/09/01 12:42:26;;;;;;;0.00;0.00;;;;;;;;;;6317300;28;20402;-76
2023/09/01 12:45:26;;;;;;;0.00;0.00;;;;;;;;;;6322687;28;20051;-76
2023/09/01 12:48:27;;;;;;;0.00;0.00;;;;;;;;;;6317455;28;20062;-76
2023/09/01 12:51:27;;;;;;;0.03;0.03;;;;;;;;;;6313421;28;20051;-76
2023/09/01 12:54:27;;;;;;;0.07;0.07;;;;;;;;;;6315505;28;20020;-76
2023/09/01 12:57:28;;;;;;;0.00;0.00;;;;;;;;;;6311953;28;20016;-83
2023/09/01 13:00:28;;;;;;;0.00;0.00;;;;;;;;;;6320666;28;20728;-84
2023/09/01 13:03:28;;;;;;;0.00;0.00;;;;;;;;;;6319993;28;20024;-83
2023/09/01 13:06:29;;;;;;;0.00;0.00;;;;;;;;;;6314198;28;20030;-83
2023/09/01 13:09:29;;;;;;;0.00;0.00;;;;;;;;;;6315952;28;20084;-83
2023/09/01 13:12:29;;;;;;;0.00;0.00;;;;;;;;;;6311945;28;20486;-84
2023/09/01 13:15:29;;;;;;;0.00;0.00;;;;;;;;;;6313452;28;20095;-84
2023/09/01 13:18:29;;;;;;;0.00;0.00;;;;;;;;;;6305653;28;20497;-85
2023/09/01 13:21:30;;;;;;;0.00;0.00;;;;;;;;;;6308520;28;20017;-83
2023/09/01 13:24:30;;;;;;;0.00;0.00;;;;;;;;;;6310748;28;20545;-85
2023/09/01 13:27:31;;;;;;;0.00;0.00;;;;;;;;;;6314283;28;20034;-85
2023/09/01 13:30:36;;;;;;;0.00;0.00;;;;;;;;;;6318192;28;20430;-84
2023/09/01 13:33:40;;;;;;;0.00;0.00;;;;;;;;;;6325897;28;20020;-84
2023/09/01 13:36:40;;;;;;;0.00;0.00;;;;;;;;;;6328056;28;20031;-85
2023/09/01 13:39:41;;;;;;;0.00;0.00;;;;;;;;;;6323674;28;20020;-83
2023/09/01 13:42:41;;;;;;;0.10;0.10;;;;;;;;;;6316228;28;20505;-84
2023/09/01 13:45:41;;;;;;;0.00;0.00;;;;;;;;;;6311973;28;20020;-84
2023/09/01 13:48:41;;;;;;;0.00;0.00;;;;;;;;;;6313962;28;20106;-85
2023/09/01 13:51:42;;;;;;;0.00;0.00;;;;;;;;;;6306631;28;20044;-84
2023/09/01 13:54:42;;;;;;;0.00;0.00;;;;;;;;;;6314690;28;20103;-83
2023/09/01 13:57:42;;;;;;;0.00;0.00;;;;;;;;;;6315710;28;20020;-84
2023/09/01 14:00:42;;;;;;;0.00;0.00;;;;;;;;;;6309631;28;20020;-85
2023/09/01 14:03:42;;;;;;;0.00;0.00;;;;;;;;;;6323064;28;20027;-84
2023/09/01 14:06:43;;;;;;;0.00;0.00;;;;;;;;;;6317307;28;20024;-83
2023/09/01 14:09:44;;;;;;;0.00;0.00;;;;;;;;;;6316702;28;20019;-83
2023/09/01 14:12:45;;;;;;;0.00;0.00;;;;;;;;;;6317595;28;20108;-83
2023/09/01 14:16:03;;;;;;;0.00;0.00;;;;;;;;;;6315799;28;20012;-85
2023/09/01 14:19:03;;;;;;;0.00;0.00;;;;;;;;;;6319035;28;20799;-83
2023/09/01 14:22:03;;;;;;;0.00;0.00;;;;;;;;;;6317349;28;20021;-83
2023/09/01 14:25:04;;;;;;;0.00;0.00;;;;;;;;;;6322379;28;20031;-83
2023/09/01 14:28:04;;;;;;;0.00;0.00;;;;;;;;;;6308797;28;20062;-84
2023/09/01 14:31:04;;;;;;;0.00;0.00;;;;;;;;;;6322884;28;20020;-82
2023/09/01 14:34:04;;;;;;;0.00;0.00;;;;;;;;;;6317097;28;20669;-82
2023/09/01 14:37:05;;;;;;;0.00;0.00;;;;;;;;;;6312479;28;20020;-83
2023/09/01 14:40:05;;;;;;;0.00;0.00;;;;;;;;;;6312896;28;20252;-83
2023/09/01 14:43:05;;;;;;;0.00;0.00;;;;;;;;;;6318960;28;20039;-83
2023/09/01 14:46:05;;;;;;;0.00;0.00;;;;;;;;;;6317142;28;20067;-83
2023/09/01 14:49:07;;;;;;;0.00;0.00;;;;;;;;;;6315143;28;20438;-84
2023/09/01 14:52:07;;;;;;;0.10;0.10;;;;;;;;;;6319082;28;20066;-83
2023/09/01 14:55:07;;;;;;;0.00;0.00;;;;;;;;;;6317638;28;20016;-83
2023/09/01 14:58:07;;;;;;;0.00;0.00;;;;;;;;;;6333420;28;20012;-83
2023/09/01 15:01:07;;;;;;;0.00;0.00;;;;;;;;;;6326104;28;20466;-83
2023/09/01 15:04:08;;;;;;;0.00;0.00;;;;;;;;;;6319550;28;20012;-83
2023/09/01 15:07:08;;;;;;;0.00;0.00;;;;;;;;;;6315454;28;20069;-83
2023/09/01 15:10:08;;;;;;;0.00;0.00;;;;;;;;;;6314787;28;20016;-83
2023/09/01 15:13:21;;;;;;;0.00;0.00;;;;;;;;;;6320493;28;20036;-83
2023/09/01 15:16:21;;;;;;;0.00;0.00;;;;;;;;;;6312719;28;20028;-83
2023/09/01 15:19:22;;;;;;;0.00;0.00;;;;;;;;;;6311266;28;20110;-77
2023/09/01 15:22:22;;;;;;;0.00;0.00;;;;;;;;;;6308443;28;20028;-77
2023/09/01 15:25:22;;;;;;;0.00;0.00;;;;;;;;;;6308321;28;20020;-77
2023/09/01 15:28:23;;;;;;;0.00;0.00;;;;;;;;;;6311972;28;20107;-77
2023/09/01 15:31:23;;;;;;;0.00;0.00;;;;;;;;;;6316509;28;20020;-77
2023/09/01 15:34:23;;;;;;;0.00;0.00;;;;;;;;;;6323181;28;20019;-77
2023/09/01 15:37:23;;;;;;;0.00;0.00;;;;;;;;;;6319225;28;20020;-77
2023/09/01 15:40:24;;;;;;;0.00;0.00;;;;;;;;;;6317548;28;20044;-77
2023/09/01 15:43:24;;;;;;;0.00;0.00;;;;;;;;;;6323418;28;20016;-77
2023/09/01 15:46:24;;;;;;;0.00;0.00;;;;;;;;;;6321893;28;20070;-76
2023/09/01 15:49:24;;;;;;;0.00;0.00;;;;;;;;;;6331139;28;20042;-76
2023/09/01 15:52:26;;;;;;;0.00;0.00;;;;;;;;;;6331059;28;20043;-77
2023/09/01 15:55:26;;;;;;;0.00;0.00;;;;;;;;;;6319297;28;20031;-77
2023/09/01 15:58:26;;;;;;;0.00;0.00;;;;;;;;;;6331448;27;20059;-77
2023/09/01 16:01:27;;;;;;;0.00;0.00;;;;;;;;;;6320212;28;20015;-76
2023/09/01 16:04:27;;;;;;;0.00;0.00;;;;;;;;;;6319817;28;20027;-77
2023/09/01 16:07:27;;;;;;;0.00;0.00;;;;;;;;;;6318796;28;20020;-76
2023/09/01 16:10:28;;;;;;;0.00;0.00;;;;;;;;;;6321981;28;20570;-77
2023/09/01 16:13:28;;;;;;;0.00;0.00;;;;;;;;;;6316193;28;20119;-77
2023/09/01 16:16:28;;;;;;;0.00;0.00;;;;;;;;;;6318634;28;20431;-77
2023/09/01 16:19:28;;;;;;;0.00;0.00;;;;;;;;;;6322918;28;20143;-77
2023/09/01 16:22:29;;;;;;;0.00;0.00;;;;;;;;;;6322429;28;20054;-77
2023/09/01 16:25:29;;;;;;;0.00;0.00;;;;;;;;;;6324295;28;20047;-77
2023/09/01 16:28:29;;;;;;;0.00;0.00;;;;;;;;;;6319667;28;20023;-77
2023/09/01 16:31:29;;;;;;;0.00;0.00;;;;;;;;;;6318175;28;20036;-77
2023/09/01 16:34:29;;;;;;;0.00;0.00;;;;;;;;;;6322943;28;20320;-77
2023/09/01 16:37:30;;;;;;;0.00;0.00;;;;;;;;;;6325839;28;20073;-77
2023/09/01 16:40:30;;;;;;;0.00;0.00;;;;;;;;;;6329548;28;20019;-77
2023/09/01 16:43:31;;;;;;;0.00;0.00;;;;;;;;;;6323228;27;20114;-77
2023/09/01 16:46:31;;;;;;;0.00;0.00;;;;;;;;;;6316999;28;20032;-77
2023/09/01 16:49:31;;;;;;;0.10;0.10;;;;;;;;;;6318044;28;20020;-77
2023/09/01 16:52:32;;;;;;;0.00;0.00;;;;;;;;;;6327411;28;20046;-77
2023/09/01 16:55:32;;;;;;;0.10;0.10;;;;;;;;;;6319192;28;20028;-76
2023/09/01 16:58:32;;;;;;;0.10;0.10;;;;;;;;;;6315998;28;20474;-77
2023/09/01 17:01:32;;;;;;;0.03;0.03;;;;;;;;;;6312124;28;20103;-77
2023/09/01 17:04:32;;;;;;;0.00;0.00;;;;;;;;;;6317077;28;20050;-77
2023/09/01 17:07:33;;;;;;;0.10;0.10;;;;;;;;;;6315660;28;20012;-77
2023/09/01 17:10:33;;;;;;;0.10;0.10;;;;;;;;;;6314023;28;20016;-77
2023/09/01 17:13:33;;;;;;;0.00;0.00;;;;;;;;;;6307721;28;20080;-76
2023/09/01 17:16:33;;;;;;;0.00;0.00;;;;;;;;;;6309553;28;20475;-76
2023/09/01 17:19:33;;;;;;;0.00;0.00;;;;;;;;;;6311676;28;20024;-76
2023/09/01 17:22:34;;;;;;;0.00;0.00;;;;;;;;;;6309702;28;20078;-76
2023/09/01 17:25:36;;;;;;;0.00;0.00;;;;;;;;;;6314895;28;20019;-76
2023/09/01 17:28:37;;;;;;;;;;;;;;;;;;6311972;28;20073;-76
2023/09/01 17:31:37;;;;;;;0.10;0.10;;;;;;;;;;6316146;28;19916;-76
2023/09/01 17:34:37;;;;;;;0.10;0.10;;;;;;;;;;6314256;28;20073;-76
2023/09/01 17:37:37;;;;;;;0.10;0.10;;;;;;;;;;6315824;28;20039;-76
2023/09/01 17:40:40;;;;;;;0.10;0.10;;;;;;;;;;6309131;28;20019;-76
2023/09/01 17:43:40;;;;;;;0.10;0.10;;;;;;;;;;6312766;28;20107;-77
2023/09/01 17:46:40;;;;;;;0.00;0.00;;;;;;;;;;6309343;28;20035;-76
2023/09/01 17:49:40;;;;;;;0.00;0.00;;;;;;;;;;6306050;28;20046;-77
2023/09/01 17:52:40;;;;;;;0.10;0.10;;;;;;;;;;6320283;28;20048;-77
2023/09/01 17:55:40;;;;;;;0.00;0.00;;;;;;;;;;6310448;28;20021;-77
2023/09/01 17:58:41;;;;;;;0.10;0.10;;;;;;;;;;6313948;28;20028;-77
2023/09/01 18:01:41;;;;;;;0.10;0.10;;;;;;;;;;6312504;28;20038;-76
2023/09/01 18:04:41;;;;;;;0.10;0.10;;;;;;;;;;6313012;28;20024;-76
2023/09/01 18:07:41;;;;;;;0.10;0.10;;;;;;;;;;6310361;28;20032;-76